createdAt,value
2022-11-13T00:02:23.875Z,1.25
2022-11-13T00:07:45.584Z,1.20
2022-11-13T00:13:07.259Z,1.17
2022-11-13T00:18:32.474Z,1.50
2022-11-13T00:23:56.060Z,1.42
2022-11-13T00:29:17.754Z,1.40
2022-11-13T00:34:49.212Z,1.02
2022-11-13T00:40:11.230Z,1.10
2022-11-13T00:45:32.875Z,1.08
2022-11-13T00:50:55.142Z,1.05
2022-11-13T00:56:16.831Z,1.00
2022-11-13T01:01:38.538Z,1.05
2022-11-13T01:07:00.398Z,1.30
2022-11-13T01:12:22.204Z,1.15
2022-11-13T01:17:43.866Z,1.00
2022-11-13T01:23:05.612Z,1.33
2022-11-13T01:28:27.617Z,1.60
2022-11-13T01:33:49.753Z,1.30
2022-11-13T01:39:12.424Z,1.05
2022-11-13T01:44:53.820Z,1.50
2022-11-13T01:50:15.510Z,1.30
2022-11-13T01:55:37.181Z,1.15
2022-11-13T02:00:58.936Z,1.20
2022-11-13T02:06:22.112Z,1.40
2022-11-13T02:11:44.267Z,1.52
2022-11-13T02:17:11.539Z,1.30
2022-11-13T02:22:41.535Z,1.17
2022-11-13T02:28:03.185Z,1.45
2022-11-13T02:33:30.232Z,1.17
2022-11-13T02:38:54.183Z,1.13
2022-11-13T02:44:15.895Z,1.00
2022-11-13T02:49:37.585Z,1.00
2022-11-13T02:54:59.334Z,1.30
2022-11-13T03:00:21.010Z,1.20
2022-11-13T03:05:42.672Z,1.60
2022-11-13T03:11:09.770Z,1.58
2022-11-13T03:16:31.480Z,1.33
2022-11-13T03:21:53.146Z,1.42
2022-11-13T03:27:14.938Z,1.20
2022-11-13T03:32:36.605Z,1.33
2022-11-13T03:37:58.247Z,1.20
2022-11-13T03:43:20.143Z,1.30
2022-11-13T03:48:41.883Z,1.20
2022-11-13T03:54:04.148Z,1.20
2022-11-13T03:59:25.782Z,1.20
2022-11-13T04:04:47.490Z,1.08
2022-11-13T04:10:09.358Z,1.30
2022-11-13T04:15:31.134Z,1.25
2022-11-13T04:20:52.805Z,1.00
2022-11-13T04:26:14.526Z,1.20
2022-11-13T04:31:36.203Z,1.13
2022-11-13T04:36:58.179Z,1.45
2022-11-13T04:42:38.298Z,1.38
2022-11-13T04:48:00.010Z,1.33
2022-11-13T04:53:21.668Z,1.30
2022-11-13T04:58:43.415Z,1.40
2022-11-13T05:04:05.213Z,1.10
2022-11-13T05:09:26.889Z,1.38
2022-11-13T05:14:48.943Z,1.40
2022-11-13T05:20:11.395Z,1.20
2022-11-13T05:25:33.054Z,1.15
2022-11-13T05:31:02.382Z,1.13
2022-11-13T05:36:24.099Z,1.15
2022-11-13T05:41:45.779Z,1.13
2022-11-13T05:47:07.447Z,1.33
2022-11-13T05:52:29.117Z,1.20
2022-11-13T05:57:50.767Z,1.38
2022-11-13T06:03:12.394Z,1.40
2022-11-13T06:08:34.235Z,1.20
2022-11-13T06:13:56.901Z,1.35
2022-11-13T06:19:18.551Z,1.20
2022-11-13T06:24:40.181Z,1.38
2022-11-13T06:30:01.819Z,1.45
2022-11-13T06:35:23.468Z,1.13
2022-11-13T06:40:45.205Z,1.10
2022-11-13T06:46:11.753Z,1.00
2022-11-13T06:51:33.724Z,1.00
2022-11-13T06:56:55.482Z,0.98
2022-11-13T07:02:17.198Z,0.82
2022-11-13T07:07:38.930Z,1.10
2022-11-13T07:13:00.777Z,0.90
2022-11-13T07:18:23.978Z,1.05
2022-11-13T07:23:48.434Z,1.10
2022-11-13T07:29:10.112Z,1.10
2022-11-13T07:34:31.775Z,0.95
2022-11-13T07:39:53.467Z,1.50
2022-11-13T07:45:15.129Z,1.60
2022-11-13T07:50:38.806Z,1.33
2022-11-13T07:56:02.091Z,2.13
2022-11-13T08:01:23.926Z,3.38
2022-11-13T08:06:45.636Z,3.17
2022-11-13T08:12:07.659Z,4.50
2022-11-13T08:17:29.380Z,4.50
2022-11-13T08:22:51.509Z,4.10
2022-11-13T08:28:13.736Z,3.90
2022-11-13T08:33:35.393Z,4.25
2022-11-13T08:38:57.136Z,4.50
2022-11-13T08:44:18.893Z,3.80
2022-11-13T08:49:40.545Z,3.85
2022-11-13T08:55:02.176Z,4.18
2022-11-13T09:00:23.897Z,3.88
2022-11-13T09:05:45.582Z,3.83
2022-11-13T09:11:07.399Z,3.78
2022-11-13T09:16:29.126Z,3.88
2022-11-13T09:21:51.929Z,3.33
2022-11-13T09:27:13.656Z,3.15
2022-11-13T09:32:35.465Z,3.80
2022-11-13T09:37:57.148Z,3.15
2022-11-13T09:43:35.334Z,2.90
2022-11-13T09:49:07.117Z,3.03
2022-11-13T09:54:29.058Z,3.38
2022-11-13T10:00:07.283Z,3.17
2022-11-13T10:05:34.718Z,3.28
2022-11-13T10:11:16.402Z,2.85
2022-11-13T10:16:56.235Z,2.88
2022-11-13T10:22:32.857Z,2.90
2022-11-13T10:28:21.428Z,2.83
2022-11-13T10:33:44.697Z,3.20
2022-11-13T10:39:09.079Z,3.53
2022-11-13T10:44:37.992Z,3.50
2022-11-13T10:50:19.011Z,3.80
2022-11-13T10:55:41.464Z,3.53
2022-11-13T11:01:14.829Z,3.03
2022-11-13T11:12:30.706Z,3.20
2022-11-13T11:17:59.577Z,2.78
2022-11-13T11:24:03.153Z,3.03
2022-11-13T11:29:39.629Z,3.35
2022-11-13T11:35:12.616Z,3.33
2022-11-13T11:40:42.522Z,3.25
2022-11-13T11:46:04.772Z,2.92
2022-11-13T11:51:41.290Z,2.92
2022-11-13T11:57:38.478Z,3.03
2022-11-13T12:08:37.926Z,3.42
2022-11-13T12:14:30.382Z,3.05
2022-11-13T12:20:26.250Z,2.78
2022-11-13T12:26:13.659Z,2.70
2022-11-13T12:31:41.066Z,3.10
2022-11-13T12:37:10.301Z,3.33
2022-11-13T12:42:55.273Z,2.75
2022-11-13T12:48:16.915Z,2.83
2022-11-13T12:53:53.497Z,2.60
2022-11-13T12:59:30.735Z,3.00
2022-11-13T13:05:19.453Z,2.83
2022-11-13T13:10:53.054Z,2.50
2022-11-13T13:16:24.184Z,2.33
2022-11-13T13:21:45.895Z,2.20
2022-11-13T13:27:25.419Z,2.30
2022-11-13T13:33:19.257Z,2.00
2022-11-13T13:38:56.041Z,2.08
2022-11-13T13:44:35.970Z,2.22
2022-11-13T13:49:58.342Z,1.58
2022-11-13T13:55:36.063Z,1.95
2022-11-13T14:01:18.436Z,1.98
2022-11-13T14:06:52.820Z,1.70
2022-11-13T14:12:20.155Z,1.90
2022-11-13T14:17:41.797Z,1.80
2022-11-13T14:23:03.600Z,1.80
2022-11-13T14:28:28.997Z,1.98
2022-11-13T14:39:33.090Z,1.88
2022-11-13T14:45:05.268Z,1.92
2022-11-13T14:50:28.976Z,2.42
2022-11-13T14:55:53.250Z,2.20
2022-11-13T15:01:20.872Z,1.77
2022-11-13T15:06:42.532Z,1.77
2022-11-13T15:12:04.336Z,2.15
2022-11-13T15:17:26.047Z,2.00
2022-11-13T15:22:48.035Z,1.92
2022-11-13T15:28:09.815Z,1.63
2022-11-13T15:33:31.638Z,2.13
2022-11-13T15:38:53.668Z,2.00
2022-11-13T15:44:15.835Z,1.50
2022-11-13T15:49:37.616Z,1.55
2022-11-13T15:55:01.470Z,1.20
2022-11-13T16:00:25.782Z,1.45
2022-11-13T16:05:47.496Z,1.50
2022-11-13T16:11:15.013Z,1.33
2022-11-13T16:16:40.930Z,1.70
2022-11-13T16:22:02.538Z,1.60
2022-11-13T16:27:33.099Z,1.73
2022-11-13T16:32:54.742Z,2.50
2022-11-13T16:38:16.399Z,3.45
2022-11-13T16:43:38.521Z,3.55
2022-11-13T16:49:00.673Z,4.20
2022-11-13T16:54:22.618Z,4.35
2022-11-13T16:59:44.610Z,3.55
2022-11-13T17:05:06.756Z,4.05
2022-11-13T17:10:32.858Z,3.47
2022-11-13T17:15:54.888Z,3.38
2022-11-13T17:21:17.221Z,3.45
2022-11-13T17:26:38.857Z,3.13
2022-11-13T17:32:00.598Z,2.50
2022-11-13T17:37:25.136Z,4.03
2022-11-13T17:42:48.637Z,8.30
2022-11-13T17:48:10.557Z,8.93
2022-11-13T17:53:33.189Z,8.73
2022-11-13T17:58:54.855Z,8.07
2022-11-13T18:04:16.475Z,6.90
2022-11-13T18:09:38.302Z,8.50
2022-11-13T18:14:59.919Z,8.57
2022-11-13T18:20:21.643Z,7.97
2022-11-13T18:25:43.634Z,8.25
2022-11-13T18:31:10.607Z,10.73
2022-11-13T18:36:33.306Z,11.13
2022-11-13T18:41:59.276Z,9.43
2022-11-13T18:47:23.702Z,9.65
2022-11-13T18:52:45.422Z,11.85
2022-11-13T18:58:07.057Z,10.18
2022-11-13T19:03:29.108Z,12.63
2022-11-13T19:09:03.265Z,13.88
2022-11-13T19:14:24.948Z,12.43
2022-11-13T19:19:46.608Z,11.98
2022-11-13T19:25:08.638Z,11.75
2022-11-13T19:30:30.586Z,11.18
2022-11-13T19:35:54.446Z,10.00
2022-11-13T19:41:16.130Z,9.55
2022-11-13T19:46:37.951Z,9.50
2022-11-13T19:51:59.625Z,9.55
2022-11-13T19:57:21.307Z,9.27
2022-11-13T20:02:43.191Z,9.63
2022-11-13T20:08:05.163Z,9.85
2022-11-13T20:13:26.872Z,8.55
2022-11-13T20:18:48.819Z,8.82
2022-11-13T20:24:10.570Z,7.97
2022-11-13T20:29:34.882Z,6.93
2022-11-13T20:34:56.551Z,7.45
2022-11-13T20:40:18.438Z,7.20
2022-11-13T20:45:40.153Z,7.05
2022-11-13T20:51:19.640Z,7.57
2022-11-13T20:56:41.394Z,10.82
2022-11-13T21:02:03.135Z,16.42
2022-11-13T21:07:24.969Z,13.45
2022-11-13T21:12:46.685Z,12.45
2022-11-13T21:18:08.476Z,11.10
2022-11-13T21:23:30.327Z,9.90
2022-11-13T21:28:56.810Z,10.23
2022-11-13T21:34:18.548Z,9.00
2022-11-13T21:39:40.228Z,8.65
2022-11-13T21:45:01.929Z,6.72
2022-11-13T21:50:23.668Z,6.22
2022-11-13T21:55:51.705Z,6.90
2022-11-13T22:01:13.897Z,6.88
2022-11-13T22:06:36.580Z,6.30
2022-11-13T22:11:58.415Z,5.72
2022-11-13T22:17:20.047Z,5.38
2022-11-13T22:22:41.681Z,4.88
2022-11-13T22:28:03.408Z,4.57
2022-11-13T22:33:33.075Z,4.10
2022-11-13T22:38:55.703Z,4.05
2022-11-13T22:44:17.410Z,4.28
2022-11-13T22:49:39.074Z,3.65
2022-11-13T22:55:01.238Z,3.38
2022-11-13T23:00:23.080Z,2.90
2022-11-13T23:05:44.795Z,3.58
2022-11-13T23:11:18.023Z,2.55
2022-11-13T23:16:39.858Z,2.70
2022-11-13T23:22:01.507Z,2.50
2022-11-13T23:27:23.276Z,2.60
2022-11-13T23:32:44.942Z,2.65
2022-11-13T23:38:06.686Z,2.30
2022-11-13T23:43:53.944Z,2.45
2022-11-13T23:49:10.829Z,2.30
2022-11-13T23:54:32.527Z,2.10
2022-11-13T23:59:54.360Z,2.00
